sensor_id;sensor_type;location;lat;lon;timestamp;pressure;altitude;pressure_sealevel;temperature;humidity
65376;BME280;51976;47.332;9.404;2023-04-26T00:00:33;92578.47;;;4.08;74.49
65376;BME280;51976;47.332;9.404;2023-04-26T00:02:59;92648.25;;;4.70;74.05
65376;BME280;51976;47.332;9.404;2023-04-26T00:05:25;92637.78;;;4.42;73.70
65376;BME280;51976;47.332;9.404;2023-04-26T00:07:50;92622.38;;;4.00;73.98
65376;BME280;51976;47.332;9.404;2023-04-26T00:10:15;92649.91;;;4.06;74.00
65376;BME280;51976;47.332;9.404;2023-04-26T00:12:41;92605.16;;;4.13;73.93
65376;BME280;51976;47.332;9.404;2023-04-26T00:15:07;92626.63;;;4.45;73.86
65376;BME280;51976;47.332;9.404;2023-04-26T00:17:34;92620.88;;;4.31;73.35
65376;BME280;51976;47.332;9.404;2023-04-26T00:19:59;92649.59;;;4.46;73.19
65376;BME280;51976;47.332;9.404;2023-04-26T00:22:25;92663.19;;;4.45;73.32
65376;BME280;51976;47.332;9.404;2023-04-26T00:24:51;92670.69;;;4.48;74.11
65376;BME280;51976;47.332;9.404;2023-04-26T00:27:16;92643.53;;;4.07;75.12
65376;BME280;51976;47.332;9.404;2023-04-26T00:29:42;92649.09;;;4.49;74.44
65376;BME280;51976;47.332;9.404;2023-04-26T00:32:07;92659.59;;;4.83;73.35
65376;BME280;51976;47.332;9.404;2023-04-26T00:34:34;92557.69;;;4.10;73.13
65376;BME280;51976;47.332;9.404;2023-04-26T00:37:01;92565.84;;;4.25;73.74
65376;BME280;51976;47.332;9.404;2023-04-26T00:39:26;92579.38;;;4.46;73.76
65376;BME280;51976;47.332;9.404;2023-04-26T00:41:52;92648.75;;;4.67;74.16
65376;BME280;51976;47.332;9.404;2023-04-26T00:44:17;92606.06;;;4.46;74.66
65376;BME280;51976;47.332;9.404;2023-04-26T00:46:43;92604.22;;;4.46;74.72
65376;BME280;51976;47.332;9.404;2023-04-26T00:49:15;92620.41;;;4.39;74.32
65376;BME280;51976;47.332;9.404;2023-04-26T00:51:42;92636.69;;;4.60;74.19
65376;BME280;51976;47.332;9.404;2023-04-26T00:54:07;92658.94;;;4.97;74.42
65376;BME280;51976;47.332;9.404;2023-04-26T00:56:35;92580.19;;;4.46;74.51
65376;BME280;51976;47.332;9.404;2023-04-26T00:59:02;92594.72;;;4.55;73.93
65376;BME280;51976;47.332;9.404;2023-04-26T01:01:27;92602.56;;;4.18;74.78
65376;BME280;51976;47.332;9.404;2023-04-26T01:03:53;92668.22;;;4.63;74.64
65376;BME280;51976;47.332;9.404;2023-04-26T01:06:19;92607.78;;;4.30;75.14
65376;BME280;51976;47.332;9.404;2023-04-26T01:08:44;92571.84;;;4.37;74.71
65376;BME280;51976;47.332;9.404;2023-04-26T01:11:10;92659.34;;;4.84;75.07
65376;BME280;51976;47.332;9.404;2023-04-26T01:13:37;92576.09;;;4.38;74.79
65376;BME280;51976;47.332;9.404;2023-04-26T01:16:03;92634.97;;;4.75;74.50
65376;BME280;51976;47.332;9.404;2023-04-26T01:18:29;92563.53;;;4.12;74.64
65376;BME280;51976;47.332;9.404;2023-04-26T01:20:54;92605.75;;;4.37;74.60
65376;BME280;51976;47.332;9.404;2023-04-26T01:23:21;92554.78;;;4.17;73.63
65376;BME280;51976;47.332;9.404;2023-04-26T01:25:47;92605.78;;;4.20;74.07
65376;BME280;51976;47.332;9.404;2023-04-26T01:28:12;92579.56;;;3.90;75.35
65376;BME280;51976;47.332;9.404;2023-04-26T01:30:38;92646.25;;;4.34;75.06
65376;BME280;51976;47.332;9.404;2023-04-26T01:33:03;92593.03;;;3.79;75.74
65376;BME280;51976;47.332;9.404;2023-04-26T01:35:29;92660.84;;;4.26;75.70
65376;BME280;51976;47.332;9.404;2023-04-26T01:37:54;92643.88;;;4.16;75.35
65376;BME280;51976;47.332;9.404;2023-04-26T01:40:19;92593.13;;;3.89;75.70
65376;BME280;51976;47.332;9.404;2023-04-26T01:42:45;92615.72;;;4.25;75.12
65376;BME280;51976;47.332;9.404;2023-04-26T01:45:10;92642.72;;;4.77;74.40
65376;BME280;51976;47.332;9.404;2023-04-26T01:47:36;92569.44;;;4.14;74.71
65376;BME280;51976;47.332;9.404;2023-04-26T01:50:01;92613.94;;;4.30;75.63
65376;BME280;51976;47.332;9.404;2023-04-26T01:52:27;92642.53;;;4.84;74.83
65376;BME280;51976;47.332;9.404;2023-04-26T01:54:53;92656.50;;;4.91;74.88
65376;BME280;51976;47.332;9.404;2023-04-26T01:57:18;92644.78;;;4.97;74.79
65376;BME280;51976;47.332;9.404;2023-04-26T01:59:43;92609.25;;;4.69;74.79
65376;BME280;51976;47.332;9.404;2023-04-26T02:02:09;92561.88;;;4.28;74.88
65376;BME280;51976;47.332;9.404;2023-04-26T02:04:34;92595.72;;;4.49;74.55
65376;BME280;51976;47.332;9.404;2023-04-26T02:07:00;92557.63;;;4.05;75.73
65376;BME280;51976;47.332;9.404;2023-04-26T02:09:28;92646.44;;;4.76;75.12
65376;BME280;51976;47.332;9.404;2023-04-26T02:11:56;92575.09;;;4.45;74.98
65376;BME280;51976;47.332;9.404;2023-04-26T02:14:21;92575.28;;;4.33;74.60
65376;BME280;51976;47.332;9.404;2023-04-26T02:16:47;92623.97;;;4.72;74.65
65376;BME280;51976;47.332;9.404;2023-04-26T02:19:12;92551.56;;;4.36;74.46
65376;BME280;51976;47.332;9.404;2023-04-26T02:21:53;92583.84;;;4.62;74.38
65376;BME280;51976;47.332;9.404;2023-04-26T02:24:19;92510.91;;;4.29;74.27
65376;BME280;51976;47.332;9.404;2023-04-26T02:26:46;92547.41;;;4.51;74.36
65376;BME280;51976;47.332;9.404;2023-04-26T02:29:11;92625.13;;;5.08;74.39
65376;BME280;51976;47.332;9.404;2023-04-26T02:31:37;92580.28;;;4.83;74.36
65376;BME280;51976;47.332;9.404;2023-04-26T02:34:02;92620.63;;;5.14;75.01
65376;BME280;51976;47.332;9.404;2023-04-26T02:36:27;92540.34;;;4.66;74.38
65376;BME280;51976;47.332;9.404;2023-04-26T02:38:53;92566.50;;;4.91;74.81
65376;BME280;51976;47.332;9.404;2023-04-26T02:41:19;92604.81;;;5.07;74.23
65376;BME280;51976;47.332;9.404;2023-04-26T02:43:44;92569.97;;;4.92;74.29
65376;BME280;51976;47.332;9.404;2023-04-26T02:46:10;92617.63;;;4.78;75.43
65376;BME280;51976;47.332;9.404;2023-04-26T02:48:35;92608.94;;;4.66;75.94
65376;BME280;51976;47.332;9.404;2023-04-26T02:51:01;92561.25;;;4.48;75.65
65376;BME280;51976;47.332;9.404;2023-04-26T02:53:26;92589.47;;;4.65;76.11
65376;BME280;51976;47.332;9.404;2023-04-26T02:55:51;92562.22;;;4.63;75.89
65376;BME280;51976;47.332;9.404;2023-04-26T02:58:17;92512.34;;;4.42;75.49
65376;BME280;51976;47.332;9.404;2023-04-26T03:00:46;92623.81;;;5.10;75.21
65376;BME280;51976;47.332;9.404;2023-04-26T03:03:12;92576.31;;;4.86;75.28
65376;BME280;51976;47.332;9.404;2023-04-26T03:05:38;92552.31;;;4.59;75.32
65376;BME280;51976;47.332;9.404;2023-04-26T03:08:03;92587.00;;;4.59;76.21
65376;BME280;51976;47.332;9.404;2023-04-26T03:10:30;92575.47;;;4.53;76.17
65376;BME280;51976;47.332;9.404;2023-04-26T03:12:55;92578.03;;;4.43;76.12
65376;BME280;51976;47.332;9.404;2023-04-26T03:15:21;92552.13;;;4.43;75.69
65376;BME280;51976;47.332;9.404;2023-04-26T03:17:46;92524.50;;;4.28;75.46
65376;BME280;51976;47.332;9.404;2023-04-26T03:20:11;92609.44;;;4.58;76.38
65376;BME280;51976;47.332;9.404;2023-04-26T03:22:38;92566.72;;;4.31;76.68
65376;BME280;51976;47.332;9.404;2023-04-26T03:25:03;92559.03;;;4.39;75.69
65376;BME280;51976;47.332;9.404;2023-04-26T03:27:29;92587.50;;;4.56;75.33
65376;BME280;51976;47.332;9.404;2023-04-26T03:29:57;92527.38;;;4.21;76.22
65376;BME280;51976;47.332;9.404;2023-04-26T03:32:23;92626.59;;;4.94;75.96
65376;BME280;51976;47.332;9.404;2023-04-26T03:34:49;92563.44;;;4.51;75.60
65376;BME280;51976;47.332;9.404;2023-04-26T03:37:14;92567.84;;;4.67;75.56
65376;BME280;51976;47.332;9.404;2023-04-26T03:39:40;92564.53;;;4.55;75.72
65376;BME280;51976;47.332;9.404;2023-04-26T03:42:05;92609.41;;;4.85;75.79
65376;BME280;51976;47.332;9.404;2023-04-26T03:44:31;92588.94;;;4.41;76.58
65376;BME280;51976;47.332;9.404;2023-04-26T03:46:56;92555.06;;;4.42;76.38
65376;BME280;51976;47.332;9.404;2023-04-26T03:49:22;92632.97;;;4.93;76.44
65376;BME280;51976;47.332;9.404;2023-04-26T03:51:47;92538.78;;;4.17;76.24
65376;BME280;51976;47.332;9.404;2023-04-26T03:54:13;92552.59;;;4.08;76.71
65376;BME280;51976;47.332;9.404;2023-04-26T03:56:38;92628.44;;;4.39;77.49
65376;BME280;51976;47.332;9.404;2023-04-26T03:59:04;92578.19;;;4.31;77.64
65376;BME280;51976;47.332;9.404;2023-04-26T04:01:30;92520.97;;;3.95;77.17
65376;BME280;51976;47.332;9.404;2023-04-26T04:03:56;92534.13;;;3.80;78.27
65376;BME280;51976;47.332;9.404;2023-04-26T04:06:21;92569.22;;;3.94;78.64
65376;BME280;51976;47.332;9.404;2023-04-26T04:08:47;92604.31;;;4.29;78.24
65376;BME280;51976;47.332;9.404;2023-04-26T04:11:12;92601.28;;;4.48;77.74
65376;BME280;51976;47.332;9.404;2023-04-26T04:13:37;92536.38;;;4.15;77.46
65376;BME280;51976;47.332;9.404;2023-04-26T04:16:03;92562.16;;;4.31;76.82
65376;BME280;51976;47.332;9.404;2023-04-26T04:18:29;92506.16;;;3.83;77.46
65376;BME280;51976;47.332;9.404;2023-04-26T04:20:55;92593.22;;;4.42;77.47
65376;BME280;51976;47.332;9.404;2023-04-26T04:23:20;92516.41;;;4.18;76.68
65376;BME280;51976;47.332;9.404;2023-04-26T04:25:45;92595.81;;;4.86;76.16
65376;BME280;51976;47.332;9.404;2023-04-26T04:28:13;92588.13;;;4.95;75.63
65376;BME280;51976;47.332;9.404;2023-04-26T04:30:38;92600.28;;;5.07;75.74
65376;BME280;51976;47.332;9.404;2023-04-26T04:33:04;92510.16;;;4.61;75.22
65376;BME280;51976;47.332;9.404;2023-04-26T04:35:30;92520.81;;;4.61;75.05
65376;BME280;51976;47.332;9.404;2023-04-26T04:37:57;92566.34;;;4.76;75.29
65376;BME280;51976;47.332;9.404;2023-04-26T04:40:23;92603.19;;;5.06;75.08
65376;BME280;51976;47.332;9.404;2023-04-26T04:42:49;92532.00;;;4.58;75.16
65376;BME280;51976;47.332;9.404;2023-04-26T04:45:15;92560.50;;;4.79;75.43
65376;BME280;51976;47.332;9.404;2023-04-26T04:47:42;92544.81;;;4.56;75.42
65376;BME280;51976;47.332;9.404;2023-04-26T04:50:07;92563.25;;;4.57;75.46
65376;BME280;51976;47.332;9.404;2023-04-26T04:52:33;92559.22;;;4.55;75.74
65376;BME280;51976;47.332;9.404;2023-04-26T04:54:59;92607.63;;;4.95;75.75
65376;BME280;51976;47.332;9.404;2023-04-26T04:57:25;92575.03;;;4.93;75.16
65376;BME280;51976;47.332;9.404;2023-04-26T04:59:50;92576.06;;;4.87;74.93
65376;BME280;51976;47.332;9.404;2023-04-26T05:02:16;92578.22;;;4.90;75.31
65376;BME280;51976;47.332;9.404;2023-04-26T05:04:41;92575.03;;;4.93;74.98
65376;BME280;51976;47.332;9.404;2023-04-26T05:07:07;92559.88;;;5.36;79.80
65376;BME280;51976;47.332;9.404;2023-04-26T05:09:33;92535.47;;;6.27;80.24
65376;BME280;51976;47.332;9.404;2023-04-26T05:11:59;92608.00;;;7.33;78.35
65376;BME280;51976;47.332;9.404;2023-04-26T05:15:07;92583.47;;;7.96;76.06
65376;BME280;51976;47.332;9.404;2023-04-26T05:18:07;92571.13;;;8.05;74.49
65376;BME280;51976;47.332;9.404;2023-04-26T05:23:55;92564.59;;;8.36;71.33
65376;BME280;51976;47.332;9.404;2023-04-26T05:26:21;92591.13;;;8.48;71.69
65376;BME280;51976;47.332;9.404;2023-04-26T05:28:46;92545.00;;;8.26;70.92
65376;BME280;51976;47.332;9.404;2023-04-26T05:31:11;92620.75;;;8.92;70.51
65376;BME280;51976;47.332;9.404;2023-04-26T05:33:37;92508.91;;;7.93;65.96
65376;BME280;51976;47.332;9.404;2023-04-26T05:36:02;92621.66;;;7.47;66.99
65376;BME280;51976;47.332;9.404;2023-04-26T05:38:28;92619.13;;;6.69;68.93
65376;BME280;51976;47.332;9.404;2023-04-26T05:40:54;92624.22;;;6.03;70.99
65376;BME280;51976;47.332;9.404;2023-04-26T05:43:19;92563.34;;;5.84;71.61
65376;BME280;51976;47.332;9.404;2023-04-26T05:45:54;92602.00;;;6.03;71.88
65376;BME280;51976;47.332;9.404;2023-04-26T05:48:20;92631.47;;;6.08;72.35
65376;BME280;51976;47.332;9.404;2023-04-26T05:50:48;92643.72;;;5.94;72.17
65376;BME280;51976;47.332;9.404;2023-04-26T05:53:14;92630.34;;;5.94;72.49
65376;BME280;51976;47.332;9.404;2023-04-26T05:55:40;92572.06;;;5.64;72.39
65376;BME280;51976;47.332;9.404;2023-04-26T05:58:06;92556.41;;;5.35;72.73
65376;BME280;51976;47.332;9.404;2023-04-26T06:00:32;92627.28;;;5.85;72.81
65376;BME280;51976;47.332;9.404;2023-04-26T06:02:57;92562.22;;;5.69;71.75
65376;BME280;51976;47.332;9.404;2023-04-26T06:05:23;92615.69;;;6.11;71.43
65376;BME280;51976;47.332;9.404;2023-04-26T06:07:49;92607.72;;;5.79;72.08
65376;BME280;51976;47.332;9.404;2023-04-26T06:10:14;92634.38;;;5.96;71.55
65376;BME280;51976;47.332;9.404;2023-04-26T06:12:40;92613.09;;;6.27;70.82
65376;BME280;51976;47.332;9.404;2023-04-26T06:15:06;92623.34;;;6.45;69.85
65376;BME280;51976;47.332;9.404;2023-04-26T06:17:31;92538.91;;;6.17;68.83
65376;BME280;51976;47.332;9.404;2023-04-26T06:19:57;92601.78;;;7.12;67.89
65376;BME280;51976;47.332;9.404;2023-04-26T06:22:23;92626.47;;;7.25;68.00
65376;BME280;51976;47.332;9.404;2023-04-26T06:24:48;92630.50;;;7.63;67.97
65376;BME280;51976;47.332;9.404;2023-04-26T06:27:13;92534.78;;;7.23;66.72
65376;BME280;51976;47.332;9.404;2023-04-26T06:29:39;92626.91;;;8.28;65.74
65376;BME280;51976;47.332;9.404;2023-04-26T06:32:05;92559.22;;;8.31;64.61
65376;BME280;51976;47.332;9.404;2023-04-26T06:34:31;92618.50;;;8.55;64.43
65376;BME280;51976;47.332;9.404;2023-04-26T06:36:56;92598.06;;;7.64;65.73
65376;BME280;51976;47.332;9.404;2023-04-26T06:39:21;92611.13;;;8.11;65.74
65376;BME280;51976;47.332;9.404;2023-04-26T06:41:47;92627.91;;;8.53;64.17
65376;BME280;51976;47.332;9.404;2023-04-26T06:44:12;92626.91;;;8.33;64.36
65376;BME280;51976;47.332;9.404;2023-04-26T06:46:37;92612.00;;;7.51;65.76
65376;BME280;51976;47.332;9.404;2023-04-26T06:49:03;92601.81;;;7.28;64.93
65376;BME280;51976;47.332;9.404;2023-04-26T06:51:28;92638.81;;;7.51;65.17
65376;BME280;51976;47.332;9.404;2023-04-26T06:53:55;92640.94;;;7.39;65.95
65376;BME280;51976;47.332;9.404;2023-04-26T06:56:23;92631.28;;;7.78;65.56
65376;BME280;51976;47.332;9.404;2023-04-26T06:59:01;92634.75;;;8.09;65.73
65376;BME280;51976;47.332;9.404;2023-04-26T07:01:27;92594.03;;;7.46;63.87
65376;BME280;51976;47.332;9.404;2023-04-26T07:03:56;92631.41;;;8.48;63.97
65376;BME280;51976;47.332;9.404;2023-04-26T07:06:22;92585.28;;;8.26;63.90
65376;BME280;51976;47.332;9.404;2023-04-26T07:08:48;92613.03;;;7.86;64.94
65376;BME280;51976;47.332;9.404;2023-04-26T07:11:13;92641.50;;;7.76;65.58
65376;BME280;51976;47.332;9.404;2023-04-26T07:13:39;92626.22;;;7.57;64.13
65376;BME280;51976;47.332;9.404;2023-04-26T07:16:04;92631.31;;;7.53;65.19
65376;BME280;51976;47.332;9.404;2023-04-26T07:18:29;92572.31;;;7.63;64.76
65376;BME280;51976;47.332;9.404;2023-04-26T07:20:55;92628.34;;;7.90;64.15
65376;BME280;51976;47.332;9.404;2023-04-26T07:23:22;92579.81;;;7.41;63.98
65376;BME280;51976;47.332;9.404;2023-04-26T07:25:47;92563.41;;;7.68;63.38
65376;BME280;51976;47.332;9.404;2023-04-26T07:28:13;92636.09;;;8.07;63.45
65376;BME280;51976;47.332;9.404;2023-04-26T07:30:38;92611.16;;;7.91;62.97
65376;BME280;51976;47.332;9.404;2023-04-26T07:33:04;92612.72;;;8.12;62.76
65376;BME280;51976;47.332;9.404;2023-04-26T07:35:30;92614.47;;;8.53;61.65
65376;BME280;51976;47.332;9.404;2023-04-26T07:37:55;92615.81;;;9.09;60.44
65376;BME280;51976;47.332;9.404;2023-04-26T07:40:21;92610.19;;;9.06;59.85
65376;BME280;51976;47.332;9.404;2023-04-26T07:42:49;92605.19;;;8.89;59.60
65376;BME280;51976;47.332;9.404;2023-04-26T07:45:14;92563.16;;;8.59;59.08
65376;BME280;51976;47.332;9.404;2023-04-26T07:47:40;92610.00;;;8.92;59.73
65376;BME280;51976;47.332;9.404;2023-04-26T07:50:06;92578.97;;;8.66;59.66
65376;BME280;51976;47.332;9.404;2023-04-26T07:52:31;92576.91;;;8.47;60.25
65376;BME280;51976;47.332;9.404;2023-04-26T07:54:57;92623.78;;;8.75;58.90
65376;BME280;51976;47.332;9.404;2023-04-26T07:57:22;92607.56;;;9.35;57.48
65376;BME280;51976;47.332;9.404;2023-04-26T07:59:48;92570.09;;;8.70;58.22
65376;BME280;51976;47.332;9.404;2023-04-26T08:02:13;92603.81;;;8.97;57.33
65376;BME280;51976;47.332;9.404;2023-04-26T08:04:47;92605.88;;;9.05;57.31
65376;BME280;51976;47.332;9.404;2023-04-26T08:07:14;92556.41;;;8.67;58.71
65376;BME280;51976;47.332;9.404;2023-04-26T08:09:40;92534.06;;;9.10;56.92
65376;BME280;51976;47.332;9.404;2023-04-26T08:12:06;92608.28;;;9.11;57.45
65376;BME280;51976;47.332;9.404;2023-04-26T08:14:33;92599.84;;;9.28;59.50
65376;BME280;51976;47.332;9.404;2023-04-26T08:16:59;92603.72;;;9.46;61.10
65376;BME280;51976;47.332;9.404;2023-04-26T08:19:24;92614.81;;;9.00;60.85
65376;BME280;51976;47.332;9.404;2023-04-26T08:21:50;92613.34;;;8.69;62.14
65376;BME280;51976;47.332;9.404;2023-04-26T08:24:16;92608.34;;;8.47;62.71
65376;BME280;51976;47.332;9.404;2023-04-26T08:26:41;92604.28;;;8.55;62.05
65376;BME280;51976;47.332;9.404;2023-04-26T08:29:07;92597.53;;;8.57;61.59
65376;BME280;51976;47.332;9.404;2023-04-26T08:31:32;92570.53;;;8.33;62.91
65376;BME280;51976;47.332;9.404;2023-04-26T08:33:57;92597.63;;;8.32;62.19
65376;BME280;51976;47.332;9.404;2023-04-26T08:36:23;92612.06;;;8.56;61.60
65376;BME280;51976;47.332;9.404;2023-04-26T08:38:48;92616.84;;;8.69;61.64
65376;BME280;51976;47.332;9.404;2023-04-26T08:41:14;92610.06;;;8.82;62.29
65376;BME280;51976;47.332;9.404;2023-04-26T08:43:44;92574.94;;;8.68;61.11
65376;BME280;51976;47.332;9.404;2023-04-26T08:46:14;92608.00;;;9.13;60.38
65376;BME280;51976;47.332;9.404;2023-04-26T08:48:40;92600.41;;;8.76;60.50
65376;BME280;51976;47.332;9.404;2023-04-26T08:51:07;92558.16;;;8.32;62.12
65376;BME280;51976;47.332;9.404;2023-04-26T08:53:34;92616.03;;;8.69;61.24
65376;BME280;51976;47.332;9.404;2023-04-26T08:56:02;92531.47;;;8.56;60.83
65376;BME280;51976;47.332;9.404;2023-04-26T08:58:29;92612.34;;;9.04;60.66
65376;BME280;51976;47.332;9.404;2023-04-26T09:00:55;92597.94;;;8.85;60.05
65376;BME280;51976;47.332;9.404;2023-04-26T09:03:22;92603.81;;;8.97;60.41
65376;BME280;51976;47.332;9.404;2023-04-26T09:05:47;92619.81;;;9.12;59.39
65376;BME280;51976;47.332;9.404;2023-04-26T09:08:15;92604.63;;;8.92;59.37
65376;BME280;51976;47.332;9.404;2023-04-26T09:10:42;92606.41;;;9.07;59.34
65376;BME280;51976;47.332;9.404;2023-04-26T09:13:08;92567.28;;;8.86;59.41
65376;BME280;51976;47.332;9.404;2023-04-26T09:15:33;92618.13;;;9.26;59.79
65376;BME280;51976;47.332;9.404;2023-04-26T09:18:20;92544.84;;;8.66;60.16
65376;BME280;51976;47.332;9.404;2023-04-26T09:21:06;92557.59;;;8.90;58.52
65376;BME280;51976;47.332;9.404;2023-04-26T09:23:32;92611.41;;;9.29;58.41
65376;BME280;51976;47.332;9.404;2023-04-26T09:26:18;92622.38;;;9.32;58.03
65376;BME280;51976;47.332;9.404;2023-04-26T09:28:45;92615.69;;;9.30;58.15
65376;BME280;51976;47.332;9.404;2023-04-26T09:31:21;92550.34;;;9.29;57.65
65376;BME280;51976;47.332;9.404;2023-04-26T09:33:58;92598.50;;;10.17;57.54
65376;BME280;51976;47.332;9.404;2023-04-26T09:36:24;92603.00;;;9.98;55.79
65376;BME280;51976;47.332;9.404;2023-04-26T09:38:50;92564.13;;;9.52;56.15
65376;BME280;51976;47.332;9.404;2023-04-26T09:41:15;92606.28;;;9.61;56.38
65376;BME280;51976;47.332;9.404;2023-04-26T09:43:41;92611.31;;;9.39;57.54
65376;BME280;51976;47.332;9.404;2023-04-26T09:46:06;92621.00;;;8.96;58.20
65376;BME280;51976;47.332;9.404;2023-04-26T09:48:33;92588.63;;;9.16;56.94
65376;BME280;51976;47.332;9.404;2023-04-26T09:51:09;92605.09;;;9.43;57.05
65376;BME280;51976;47.332;9.404;2023-04-26T09:53:39;92606.91;;;9.53;55.63
65376;BME280;51976;47.332;9.404;2023-04-26T09:56:12;92551.22;;;9.20;56.83
65376;BME280;51976;47.332;9.404;2023-04-26T09:58:54;92607.72;;;9.54;57.57
65376;BME280;51976;47.332;9.404;2023-04-26T10:01:24;92532.53;;;8.99;56.94
65376;BME280;51976;47.332;9.404;2023-04-26T10:03:51;92568.91;;;9.26;56.38
65376;BME280;51976;47.332;9.404;2023-04-26T10:06:16;92592.22;;;9.69;56.53
65376;BME280;51976;47.332;9.404;2023-04-26T10:08:42;92561.16;;;10.11;54.62
65376;BME280;51976;47.332;9.404;2023-04-26T10:11:07;92558.47;;;9.53;55.73
65376;BME280;51976;47.332;9.404;2023-04-26T10:13:37;92540.94;;;9.27;55.88
65376;BME280;51976;47.332;9.404;2023-04-26T10:16:03;92546.31;;;9.27;54.73
65376;BME280;51976;47.332;9.404;2023-04-26T10:18:30;92583.75;;;9.57;55.03
65376;BME280;51976;47.332;9.404;2023-04-26T10:21:01;92575.72;;;9.52;56.12
65376;BME280;51976;47.332;9.404;2023-04-26T10:23:29;92571.41;;;9.51;56.53
65376;BME280;51976;47.332;9.404;2023-04-26T10:25:55;92593.84;;;9.70;55.74
65376;BME280;51976;47.332;9.404;2023-04-26T10:28:54;92586.22;;;9.82;54.89
65376;BME280;51976;47.332;9.404;2023-04-26T10:31:20;92577.41;;;9.72;55.73
65376;BME280;51976;47.332;9.404;2023-04-26T10:34:17;92589.69;;;9.83;55.59
65376;BME280;51976;47.332;9.404;2023-04-26T10:37:05;92557.69;;;9.53;56.47
65376;BME280;51976;47.332;9.404;2023-04-26T10:39:31;92561.22;;;9.09;57.13
65376;BME280;51976;47.332;9.404;2023-04-26T10:42:19;92573.69;;;9.34;57.51
65376;BME280;51976;47.332;9.404;2023-04-26T10:44:52;92520.72;;;9.00;57.13
65376;BME280;51976;47.332;9.404;2023-04-26T10:47:32;92532.13;;;9.50;56.50
65376;BME280;51976;47.332;9.404;2023-04-26T10:50:10;92580.19;;;9.91;55.74
65376;BME280;51976;47.332;9.404;2023-04-26T10:52:38;92573.44;;;10.17;53.94
65376;BME280;51976;47.332;9.404;2023-04-26T10:55:40;92561.44;;;10.09;53.86
65376;BME280;51976;47.332;9.404;2023-04-26T10:58:30;92560.91;;;10.07;53.83
65376;BME280;51976;47.332;9.404;2023-04-26T11:01:05;92562.31;;;9.76;54.57
65376;BME280;51976;47.332;9.404;2023-04-26T11:03:31;92534.66;;;9.65;54.59
65376;BME280;51976;47.332;9.404;2023-04-26T11:05:57;92561.47;;;9.80;53.84
65376;BME280;51976;47.332;9.404;2023-04-26T11:08:29;92520.84;;;9.48;54.31
65376;BME280;51976;47.332;9.404;2023-04-26T11:11:06;92568.34;;;10.15;54.28
65376;BME280;51976;47.332;9.404;2023-04-26T11:13:37;92552.78;;;10.60;52.80
65376;BME280;51976;47.332;9.404;2023-04-26T11:16:08;92563.53;;;10.12;52.67
65376;BME280;51976;47.332;9.404;2023-04-26T11:18:36;92536.91;;;10.11;52.94
65376;BME280;51976;47.332;9.404;2023-04-26T11:21:01;92502.53;;;10.27;52.66
65376;BME280;51976;47.332;9.404;2023-04-26T11:23:28;92553.53;;;10.84;52.53
65376;BME280;51976;47.332;9.404;2023-04-26T11:26:04;92555.13;;;11.42;51.64
65376;BME280;51976;47.332;9.404;2023-04-26T11:28:31;92525.59;;;11.64;50.31
65376;BME280;51976;47.332;9.404;2023-04-26T11:30:56;92543.41;;;11.65;48.07
65376;BME280;51976;47.332;9.404;2023-04-26T11:33:22;92541.22;;;11.16;49.86
65376;BME280;51976;47.332;9.404;2023-04-26T11:35:49;92530.34;;;10.17;55.64
65376;BME280;51976;47.332;9.404;2023-04-26T11:38:15;92549.06;;;10.32;55.77
65376;BME280;51976;47.332;9.404;2023-04-26T11:40:42;92547.91;;;9.85;57.60
65376;BME280;51976;47.332;9.404;2023-04-26T11:43:08;92543.97;;;9.78;56.71
65376;BME280;51976;47.332;9.404;2023-04-26T11:45:35;92545.69;;;9.93;56.39
65376;BME280;51976;47.332;9.404;2023-04-26T11:48:03;92542.84;;;9.84;56.73
65376;BME280;51976;47.332;9.404;2023-04-26T11:50:33;92519.03;;;9.67;57.04
65376;BME280;51976;47.332;9.404;2023-04-26T11:53:03;92488.22;;;9.26;56.71
65376;BME280;51976;47.332;9.404;2023-04-26T11:55:30;92539.50;;;9.68;56.96
65376;BME280;51976;47.332;9.404;2023-04-26T11:57:59;92553.31;;;9.85;55.91
65376;BME280;51976;47.332;9.404;2023-04-26T12:00:25;92552.50;;;9.85;55.75
65376;BME280;51976;47.332;9.404;2023-04-26T12:02:50;92506.59;;;9.47;55.18
65376;BME280;51976;47.332;9.404;2023-04-26T12:05:27;92505.81;;;9.71;55.29
65376;BME280;51976;47.332;9.404;2023-04-26T12:07:56;92521.13;;;9.99;55.51
65376;BME280;51976;47.332;9.404;2023-04-26T12:10:26;92524.00;;;10.08;54.99
65376;BME280;51976;47.332;9.404;2023-04-26T12:12:53;92533.63;;;10.14;54.27
65376;BME280;51976;47.332;9.404;2023-04-26T12:15:24;92547.84;;;10.43;54.29
65376;BME280;51976;47.332;9.404;2023-04-26T12:17:51;92552.81;;;10.36;53.34
65376;BME280;51976;47.332;9.404;2023-04-26T12:20:17;92522.97;;;10.51;53.27
65376;BME280;51976;47.332;9.404;2023-04-26T12:23:03;92547.09;;;10.80;52.84
65376;BME280;51976;47.332;9.404;2023-04-26T12:25:29;92498.06;;;10.78;52.94
65376;BME280;51976;47.332;9.404;2023-04-26T12:27:55;92540.28;;;10.88;53.22
65376;BME280;51976;47.332;9.404;2023-04-26T12:30:21;92545.31;;;11.13;53.21
65376;BME280;51976;47.332;9.404;2023-04-26T12:32:47;92547.28;;;10.89;52.83
65376;BME280;51976;47.332;9.404;2023-04-26T12:35:12;92526.47;;;10.52;53.81
65376;BME280;51976;47.332;9.404;2023-04-26T12:37:37;92547.91;;;10.81;53.94
65376;BME280;51976;47.332;9.404;2023-04-26T12:40:03;92516.09;;;10.40;53.20
65376;BME280;51976;47.332;9.404;2023-04-26T12:42:30;92514.75;;;10.62;53.00
65376;BME280;51976;47.332;9.404;2023-04-26T12:44:56;92552.34;;;10.72;53.55
65376;BME280;51976;47.332;9.404;2023-04-26T12:47:21;92549.00;;;10.80;53.78
65376;BME280;51976;47.332;9.404;2023-04-26T12:49:47;92551.19;;;10.78;54.29
65376;BME280;51976;47.332;9.404;2023-04-26T12:52:12;92542.41;;;10.67;54.67
65376;BME280;51976;47.332;9.404;2023-04-26T12:54:37;92558.94;;;10.84;53.99
65376;BME280;51976;47.332;9.404;2023-04-26T12:57:04;92549.69;;;10.91;53.80
65376;BME280;51976;47.332;9.404;2023-04-26T12:59:30;92485.41;;;10.60;53.35
65376;BME280;51976;47.332;9.404;2023-04-26T13:01:55;92551.13;;;10.83;53.38
65376;BME280;51976;47.332;9.404;2023-04-26T13:04:21;92553.59;;;10.98;53.10
65376;BME280;51976;47.332;9.404;2023-04-26T13:06:46;92493.53;;;10.74;52.98
65376;BME280;51976;47.332;9.404;2023-04-26T13:09:30;92497.09;;;10.69;54.09
65376;BME280;51976;47.332;9.404;2023-04-26T13:11:55;92565.06;;;10.90;54.23
65376;BME280;51976;47.332;9.404;2023-04-26T13:14:21;92535.91;;;11.11;53.33